Hersman, Illinois
Current Conditions -  °F | °C
As of 7:15 PM on Tuesday 21 Oct 2014 (Local Time) from KPPQ Reporting Station
Haze Haze  
Wind Chill: 55°   Ceiling: 700
Heat Index: 55°   Visibility: 1mi
Dew Point: 41°   Wind: 0mph
Humidity: 60%   Direction: NA
Pressure: 30.17"   Gusts: NA
Location:  39.9985°N, 90.6925°W
Report Text: KPPQ 220015Z AUTO 00000KT 1SM HZ VV007 13/05 A3017 RMK AO2 T01260050
Loading
Personal Weather Stations






























Interactive Weather Map
Tropical Storm Tracking
New forecast layout! Learn more

10-Day Weather Forecast

Advertisements
Track Severe Weather on mobile